Time;durP1;ratioP1;P1;durP2;ratioP2;P2;SDS_P1;SDS_P2;PMS_P1;PMS_P2;Temp;Humidity;BMP_temperature;BMP_pressure;BME280_temperature;BME280_humidity;BME280_pressure;Samples;Min_cycle;Max_cycle;Signal;HPM_P1;HPM_P2
2021/01/23 00:00:36;;;;;;;4.30;2.42;;;;;;;;;;4147520;28;20065;-58
2021/01/23 00:02:38;;;;;;;4.50;2.25;;;;;;;;;;4149340;28;20072;-58
2021/01/23 00:04:44;;;;;;;4.75;2.30;;;;;;;;;;4147526;28;20037;-58
2021/01/23 00:06:46;;;;;;;3.95;2.25;;;;;;;;;;4151711;28;20769;-58
2021/01/23 00:08:48;;;;;;;5.07;2.45;;;;;;;;;;4145480;28;20058;-58
2021/01/23 00:10:50;;;;;;;6.57;2.50;;;;;;;;;;4148388;28;20104;-58
2021/01/23 00:12:52;;;;;;;4.50;2.45;;;;;;;;;;4154396;28;20507;-59
2021/01/23 00:14:54;;;;;;;5.28;2.90;;;;;;;;;;4145645;28;20049;-58
2021/01/23 00:16:57;;;;;;;5.20;2.63;;;;;;;;;;4151191;28;20534;-59
2021/01/23 00:18:59;;;;;;;4.22;2.40;;;;;;;;;;4153122;28;20157;-58
2021/01/23 00:21:01;;;;;;;3.97;2.47;;;;;;;;;;4151796;28;20040;-60
2021/01/23 00:23:03;;;;;;;4.43;2.35;;;;;;;;;;4145664;28;20049;-58
2021/01/23 00:25:05;;;;;;;4.93;2.67;;;;;;;;;;4154103;28;20518;-58
2021/01/23 00:27:07;;;;;;;4.60;2.40;;;;;;;;;;4144520;28;20525;-57
2021/01/23 00:29:09;;;;;;;5.10;2.60;;;;;;;;;;4150334;28;20086;-58
2021/01/23 00:31:11;;;;;;;4.70;2.80;;;;;;;;;;4146053;28;20080;-58
2021/01/23 00:33:13;;;;;;;4.95;2.33;;;;;;;;;;4152637;28;20120;-58
2021/01/23 00:35:16;;;;;;;6.07;2.50;;;;;;;;;;4150928;28;20474;-58
2021/01/23 00:37:18;;;;;;;4.93;2.28;;;;;;;;;;4150004;28;20072;-57
2021/01/23 00:39:20;;;;;;;4.27;2.67;;;;;;;;;;4146531;28;20080;-58
2021/01/23 00:41:22;;;;;;;4.10;2.35;;;;;;;;;;4147760;28;20499;-59
2021/01/23 00:43:24;;;;;;;5.23;2.53;;;;;;;;;;4142694;28;20038;-58
2021/01/23 00:45:26;;;;;;;6.00;2.88;;;;;;;;;;4143609;28;20108;-56
2021/01/23 00:47:28;;;;;;;5.60;2.53;;;;;;;;;;4147066;28;20677;-57
2021/01/23 00:49:30;;;;;;;4.35;2.33;;;;;;;;;;4148635;28;22792;-58
2021/01/23 00:51:32;;;;;;;4.97;2.92;;;;;;;;;;4146187;28;20037;-57
2021/01/23 00:53:34;;;;;;;6.60;3.10;;;;;;;;;;4146974;28;20101;-59
2021/01/23 00:55:36;;;;;;;5.07;2.30;;;;;;;;;;4150988;28;20246;-58
2021/01/23 00:57:38;;;;;;;5.75;2.58;;;;;;;;;;4152381;28;20033;-58
2021/01/23 00:59:40;;;;;;;7.67;3.17;;;;;;;;;;4151572;28;20506;-58
2021/01/23 01:01:42;;;;;;;5.65;3.00;;;;;;;;;;4144297;28;20046;-59
2021/01/23 01:03:44;;;;;;;5.73;2.70;;;;;;;;;;4152488;28;20025;-58
2021/01/23 01:05:46;;;;;;;5.70;2.58;;;;;;;;;;4144487;28;20041;-58
2021/01/23 01:07:48;;;;;;;5.37;2.47;;;;;;;;;;4148369;28;21035;-58
2021/01/23 01:09:50;;;;;;;4.68;2.25;;;;;;;;;;4147974;28;20036;-58
2021/01/23 01:11:52;;;;;;;4.28;2.40;;;;;;;;;;4145209;28;20255;-58
2021/01/23 01:13:54;;;;;;;4.75;2.45;;;28.90;57.30;;;;;;4150939;28;20063;-58
2021/01/23 01:15:56;;;;;;;3.88;2.10;;;29.80;56.90;;;;;;4150581;28;20034;-58
2021/01/23 01:17:58;;;;;;;5.05;2.13;;;29.80;57.30;;;;;;4148966;28;20052;-58
2021/01/23 01:20:00;;;;;;;3.70;2.27;;;29.80;57.30;;;;;;4151023;28;20096;-58
2021/01/23 01:22:03;;;;;;;6.15;2.20;;;29.90;57.30;;;;;;4156561;28;20053;-59
2021/01/23 01:24:05;;;;;;;4.20;2.00;;;29.90;57.30;;;;;;4149995;28;20079;-59
2021/01/23 01:26:07;;;;;;;;;;;29.80;57.10;;;;;;4157983;28;20033;-59
2021/01/23 01:28:09;;;;;;;5.35;2.35;;;29.90;57.20;;;;;;4158490;28;20641;-59
2021/01/23 01:30:12;;;;;;;4.43;2.20;;;29.90;57.20;;;;;;4157875;28;20364;-58
2021/01/23 01:32:14;;;;;;;4.00;2.38;;;29.90;57.20;;;;;;4159927;28;20044;-58
2021/01/23 01:34:16;;;;;;;3.67;2.10;;;29.90;57.20;;;;;;4151569;28;20467;-58
2021/01/23 01:36:19;;;;;;;3.70;2.30;;;29.90;57.10;;;;;;4155780;28;20633;-58
2021/01/23 01:38:21;;;;;;;5.93;2.37;;;29.90;57.10;;;;;;4153487;28;20034;-58
2021/01/23 01:40:23;;;;;;;4.05;2.00;;;30.00;57.10;;;;;;4145698;28;20061;-59
2021/01/23 01:42:25;;;;;;;6.25;2.35;;;30.00;57.10;;;;;;4151956;28;20057;-58
2021/01/23 01:44:27;;;;;;;4.70;2.10;;;30.00;57.00;;;;;;4151673;28;20033;-58
2021/01/23 01:46:29;;;;;;;4.23;2.17;;;30.00;57.00;;;;;;4149031;28;20076;-58
2021/01/23 01:48:31;;;;;;;5.15;1.90;;;30.00;57.00;;;;;;4152298;28;20361;-58
2021/01/23 01:50:34;;;;;;;3.33;1.83;;;30.00;57.00;;;;;;4150046;28;20148;-59
2021/01/23 01:52:37;;;;;;;3.00;1.97;;;30.10;57.10;;;;;;4150155;28;20045;-60
2021/01/23 01:54:40;;;;;;;4.13;2.35;;;30.10;57.10;;;;;;4151022;28;20029;-59
2021/01/23 01:56:42;;;;;;;4.13;2.28;;;30.00;55.40;;;;;;4148413;28;20060;-57
2021/01/23 01:58:44;;;;;;;3.70;2.05;;;29.90;54.50;;;;;;4149770;28;20041;-52
2021/01/23 02:00:46;;;;;;;3.45;2.10;;;;;;;;;;4148498;28;20034;-59
2021/01/23 02:03:06;;;;;;;4.07;2.20;;;;;;;;;;4149276;28;20581;-58
2021/01/23 02:05:19;;;;;;;3.15;2.25;;;;;;;;;;4148872;28;20050;-59
2021/01/23 02:07:32;;;;;;;4.35;2.20;;;;;;;;;;4152022;28;20045;-58
2021/01/23 02:09:35;;;;;;;3.90;2.33;;;;;;;;;;4150147;28;20542;-57
2021/01/23 02:11:45;;;;;;;3.15;2.30;;;;;;;;;;4153157;28;20617;-57
2021/01/23 02:13:52;;;;;;;4.25;2.47;;;;;;;;;;4154350;28;20037;-60
2021/01/23 02:16:12;;;;;;;3.35;2.38;;;;;;;;;;4151072;28;20034;-62
2021/01/23 02:18:16;;;;;;;2.90;2.03;;;;;;;;;;4147453;28;20232;-62
2021/01/23 02:20:38;;;;;;;3.15;2.00;;;;;;;;;;4150733;28;20123;-63
2021/01/23 02:22:53;;;;;;;4.78;2.13;;;;;;;;;;4153513;28;20042;-59
2021/01/23 02:24:56;;;;;;;3.03;2.13;;;;;;;;;;4151887;28;20029;-59
2021/01/23 02:27:10;;;;;;;3.30;2.28;;;;;;;;;;4151341;28;20120;-59
2021/01/23 02:29:18;;;;;;;4.25;2.63;;;;;;;;;;4145495;28;20156;-59
2021/01/23 02:31:21;;;;;;;3.53;2.03;;;;;;;;;;4144226;28;20086;-61
2021/01/23 02:33:24;;;;;;;5.18;2.30;;;;;;;;;;4154850;28;20022;-61
2021/01/23 02:35:26;;;;;;;6.38;2.50;;;;;;;;;;4146823;28;20060;-63
2021/01/23 02:37:29;;;;;;;6.03;4.53;;;;;;;;;;4152223;28;20052;-62
2021/01/23 02:39:32;;;;;;;24.58;18.75;;;;;;;;;;4149279;28;20491;-62
2021/01/23 02:41:34;;;;;;;68.80;46.95;;;;;;;;;;4150315;28;20053;-61
2021/01/23 02:43:40;;;;;;;86.88;56.67;;;;;;;;;;4151070;28;20061;-60
2021/01/23 02:45:42;;;;;;;95.63;59.67;;;;;;;;;;4152352;28;20026;-62
2021/01/23 02:47:46;;;;;;;94.20;56.08;;;;;;;;;;4147169;28;20076;-61
2021/01/23 02:49:49;;;;;;;85.80;53.42;;;;;;;;;;4148383;28;20136;-61
2021/01/23 02:51:51;;;;;;;75.47;47.10;;;;;;;;;;4152025;28;20025;-61
2021/01/23 02:53:59;;;;;;;70.47;43.78;;;29.70;53.70;;;;;;4149657;28;20430;-66
2021/01/23 02:56:09;;;;;;;54.83;36.05;;;27.10;53.60;;;;;;4150461;28;20534;-64
2021/01/23 02:58:15;;;;;;;49.75;32.67;;;27.00;53.60;;;;;;4147858;28;20132;-59
2021/01/23 03:00:19;;;;;;;42.88;28.85;;;26.90;53.10;;;;;;4154586;28;20458;-62
2021/01/23 03:02:24;;;;;;;39.83;25.65;;;26.80;53.30;;;;;;4147299;28;20068;-60
2021/01/23 03:04:28;;;;;;;37.03;23.27;;;26.70;53.30;;;;;;4147314;28;20030;-62
2021/01/23 03:06:32;;;;;;;29.45;20.27;;;26.70;53.50;;;;;;4152703;28;20076;-60
2021/01/23 03:08:34;;;;;;;28.85;17.33;;;26.70;53.70;;;;;;4146090;28;20113;-60
2021/01/23 03:10:39;;;;;;;23.08;15.85;;;26.60;53.70;;;;;;4145730;28;20047;-60
2021/01/23 03:12:41;;;;;;;22.42;14.57;;;;;;;;;;4150498;28;20087;-60
2021/01/23 03:14:43;;;;;;;16.90;12.18;;;26.60;54.30;;;;;;4144436;28;20451;-66
2021/01/23 03:16:54;;;;;;;16.47;11.10;;;26.50;54.60;;;;;;4143111;28;20046;-62
2021/01/23 03:18:56;;;;;;;14.57;11.25;;;26.40;54.00;;;;;;4150869;28;20028;-64
2021/01/23 03:20:58;;;;;;;11.98;8.43;;;26.40;54.00;;;;;;4149703;28;20321;-61
2021/01/23 03:23:01;;;;;;;13.85;9.98;;;26.40;54.10;;;;;;4163382;28;20063;-63
2021/01/23 03:25:03;;;;;;;12.90;8.40;;;26.30;54.30;;;;;;4145446;28;20117;-65
2021/01/23 03:27:06;;;;;;;10.60;8.32;;;26.20;54.50;;;;;;4148642;28;20469;-59
2021/01/23 03:29:08;;;;;;;9.45;7.47;;;26.20;54.70;;;;;;4150885;28;20034;-66
2021/01/23 03:31:10;;;;;;;8.97;6.60;;;26.20;54.50;;;;;;4151229;28;20111;-59
2021/01/23 03:33:12;;;;;;;8.98;6.47;;;26.20;54.70;;;;;;4147269;28;20132;-62
2021/01/23 03:35:14;;;;;;;7.22;5.82;;;;;;;;;;4145911;28;20037;-66
2021/01/23 03:37:16;;;;;;;7.05;5.30;;;26.10;54.80;;;;;;4149600;28;20036;-60
2021/01/23 03:39:18;;;;;;;8.52;5.43;;;26.00;55.60;;;;;;4151353;28;20033;-63
2021/01/23 03:41:20;;;;;;;7.65;5.35;;;26.00;55.50;;;;;;4143550;28;20503;-62
2021/01/23 03:43:22;;;;;;;7.20;4.80;;;26.00;55.30;;;;;;4147307;28;20404;-62
2021/01/23 03:45:25;;;;;;;7.05;4.97;;;25.90;55.40;;;;;;4146687;28;20021;-65
2021/01/23 03:47:27;;;;;;;5.78;4.15;;;25.90;55.40;;;;;;4147996;28;20041;-65
2021/01/23 03:49:29;;;;;;;7.10;4.17;;;25.90;55.40;;;;;;4149532;28;20048;-63
2021/01/23 03:51:32;;;;;;;5.38;3.67;;;25.90;55.40;;;;;;4149395;28;20293;-63
2021/01/23 03:53:34;;;;;;;5.30;3.83;;;;;;;;;;4145634;28;20071;-62
2021/01/23 03:55:37;;;;;;;5.90;3.63;;;25.80;55.50;;;;;;4143965;28;20387;-61
2021/01/23 03:57:39;;;;;;;5.83;3.57;;;25.80;55.40;;;;;;4147727;28;20060;-61
2021/01/23 03:59:41;;;;;;;4.63;3.40;;;25.70;55.40;;;;;;4145607;28;20055;-58
2021/01/23 04:01:44;;;;;;;6.78;3.33;;;;;;;;;;4148295;28;20117;-59
2021/01/23 04:03:46;;;;;;;4.63;2.92;;;;;;;;;;4150456;28;20044;-59
2021/01/23 04:05:47;;;;;;;4.03;3.00;;;;;;;;;;4150226;28;20132;-58
2021/01/23 04:07:49;;;;;;;5.28;3.08;;;;;;;;;;4144745;28;20037;-59
2021/01/23 04:09:51;;;;;;;5.68;3.10;;;;;;;;;;4153683;28;20728;-60
2021/01/23 04:11:53;;;;;;;4.55;3.10;;;;;;;;;;4147748;28;20038;-59
2021/01/23 04:13:55;;;;;;;5.25;3.22;;;;;;;;;;4151621;28;20456;-59
2021/01/23 04:15:57;;;;;;;4.50;2.83;;;;;;;;;;4149329;28;20041;-61
2021/01/23 04:17:59;;;;;;;4.75;2.85;;;;;;;;;;4149527;28;20112;-56
2021/01/23 04:20:01;;;;;;;5.90;3.13;;;;;;;;;;4148437;28;20033;-58
2021/01/23 04:22:03;;;;;;;4.25;2.80;;;;;;;;;;4147288;28;20021;-57
2021/01/23 04:24:07;;;;;;;4.93;3.10;;;;;;;;;;4144945;28;20033;-59
2021/01/23 04:26:09;;;;;;;3.83;2.30;;;;;;;;;;4148353;28;20049;-63
2021/01/23 04:28:11;;;;;;;5.20;2.60;;;;;;;;;;4143637;28;20116;-59
2021/01/23 04:30:13;;;;;;;5.05;2.70;;;;;;;;;;4150162;28;20013;-63
2021/01/23 04:32:15;;;;;;;4.65;2.72;;;;;;;;;;4150517;28;20044;-58
2021/01/23 04:34:17;;;;;;;6.10;2.88;;;;;;;;;;4145084;28;20038;-61
2021/01/23 04:36:19;;;;;;;4.78;2.60;;;;;;;;;;4153821;28;20022;-56
2021/01/23 04:38:21;;;;;;;17.42;15.73;;;;;;;;;;4140616;28;20342;-56
2021/01/23 04:40:23;;;;;;;21.48;19.40;;;;;;;;;;4150442;28;20109;-59
2021/01/23 04:42:25;;;;;;;20.60;18.45;;;;;;;;;;4148163;28;20706;-60
2021/01/23 04:44:27;;;;;;;21.92;19.73;;;;;;;;;;4148944;28;20030;-60
2021/01/23 04:46:29;;;;;;;20.45;18.30;;;;;;;;;;4147063;28;20038;-59
2021/01/23 04:48:31;;;;;;;18.58;16.48;;;;;;;;;;4145963;28;20504;-59
2021/01/23 04:50:33;;;;;;;18.17;16.27;;;;;;;;;;4149041;28;20124;-59
2021/01/23 04:52:41;;;;;;;21.85;15.95;;;;;;;;;;4146466;28;20160;-60
2021/01/23 04:54:44;;;;;;;15.82;14.13;;;;;;;;;;4153122;28;20139;-60
2021/01/23 04:56:46;;;;;;;14.32;12.93;;;;;;;;;;4146358;28;20057;-61
2021/01/23 04:58:48;;;;;;;13.65;12.18;;;;;;;;;;4139978;28;20386;-60
2021/01/23 05:00:50;;;;;;;13.73;12.15;;;;;;;;;;4147835;28;20372;-62
2021/01/23 05:03:18;;;;;;;13.00;11.23;;;;;;;;;;4137969;28;20057;-61
2021/01/23 05:05:20;;;;;;;10.80;9.75;;;;;;;;;;4146185;28;20373;-60
2021/01/23 05:07:30;;;;;;;11.75;9.73;;;;;;;;;;4147942;28;20272;-60
2021/01/23 05:09:33;;;;;;;9.20;8.30;;;;;;;;;;4150273;28;20040;-60
2021/01/23 05:11:48;;;;;;;8.20;7.40;;;;;;;;;;4146475;28;20041;-61
2021/01/23 05:14:08;;;;;;;8.85;7.68;;;;;;;;;;4151297;28;20041;-60
2021/01/23 05:16:25;;;;;;;8.05;7.05;;;;;;;;;;4146352;28;20762;-60
2021/01/23 05:18:27;;;;;;;7.10;6.40;;;;;;;;;;4149823;28;20124;-60
2021/01/23 05:20:47;;;;;;;6.40;5.30;;;;;;;;;;4142599;28;20061;-61
2021/01/23 05:22:49;;;;;;;6.45;5.50;;;;;;;;;;4148743;28;20097;-60
2021/01/23 05:24:52;;;;;;;5.85;5.25;;;;;;;;;;4149396;28;20072;-60
2021/01/23 05:26:57;;;;;;;5.50;4.35;;;;;;;;;;4147702;28;20073;-61
2021/01/23 05:29:09;;;;;;;5.78;4.80;;;;;;;;;;4147158;28;20021;-61
2021/01/23 05:31:18;;;;;;;5.97;5.07;;;;;;;;;;4144503;28;20666;-60
2021/01/23 05:33:21;;;;;;;6.00;4.20;;;;;;;;;;4153501;28;20217;-61
2021/01/23 05:35:23;;;;;;;5.97;4.22;;;;;;;;;;4149085;28;20041;-62
2021/01/23 05:37:37;;;;;;;5.53;4.28;;;;;;;;;;4147841;28;20057;-61
2021/01/23 05:39:38;;;;;;;;;;;;;;;;;;4148310;28;20519;-60
2021/01/23 05:41:40;;;;;;;5.38;3.72;;;;;;;;;;4149395;28;19917;-60
2021/01/23 05:43:49;;;;;;;4.60;4.05;;;;;;;;;;4148377;28;20507;-60
2021/01/23 05:45:51;;;;;;;4.93;3.30;;;;;;;;;;4149224;28;20041;-61
2021/01/23 05:47:53;;;;;;;3.92;2.90;;;;;;;;;;4145317;28;20057;-61
2021/01/23 05:49:55;;;;;;;4.35;2.90;;;;;;;;;;4151202;28;20038;-61
2021/01/23 05:51:57;;;;;;;5.05;3.42;;;;;;;;;;4149717;28;20107;-62
2021/01/23 05:53:59;;;;;;;3.65;3.08;;;;;;;;;;4145165;28;20467;-62
2021/01/23 05:56:02;;;;;;;3.90;3.00;;;;;;;;;;4143194;28;20103;-60
2021/01/23 05:58:04;;;;;;;4.60;3.05;;;;;;;;;;4146518;28;20029;-60
2021/01/23 06:00:07;;;;;;;3.35;2.67;;;;;;;;;;4148856;28;20041;-60
2021/01/23 06:02:10;;;;;;;3.97;3.05;;;;;;;;;;4145861;28;20474;-60
2021/01/23 06:04:15;;;;;;;4.03;2.67;;;;;;;;;;4147325;28;20044;-60
2021/01/23 06:06:18;;;;;;;4.38;3.30;;;;;;;;;;4151680;28;20033;-60
2021/01/23 06:08:40;;;;;;;4.97;2.97;;;;;;;;;;4145109;28;20131;-60
2021/01/23 06:10:42;;;;;;;5.32;4.03;;;;;;;;;;4144906;28;20037;-60
2021/01/23 06:12:44;;;;;;;5.85;4.30;;;;;;;;;;4153755;28;20018;-59
2021/01/23 06:14:46;;;;;;;7.47;4.53;;;;;;;;;;4155560;28;20049;-61
2021/01/23 06:16:48;;;;;;;7.53;4.40;;;;;;;;;;4149781;28;20041;-60
2021/01/23 06:18:50;;;;;;;8.10;4.82;;;;;;;;;;4153139;28;20298;-59
2021/01/23 06:20:53;;;;;;;6.78;4.13;;;;;;;;;;4149149;28;20381;-62
2021/01/23 06:22:55;;;;;;;5.95;4.13;;;;;;;;;;4154250;28;20309;-60
2021/01/23 06:24:58;;;;;;;5.63;4.22;;;;;;;;;;4151163;28;20454;-59
2021/01/23 06:27:00;;;;;;;6.57;4.43;;;;;;;;;;4149204;28;20034;-60
2021/01/23 06:29:02;;;;;;;6.00;4.10;;;;;;;;;;4151343;28;20037;-60
2021/01/23 06:31:23;;;;;;;7.10;4.55;;;;;;;;;;4154000;28;20258;-61
2021/01/23 06:33:25;;;;;;;5.82;4.10;;;;;;;;;;4146199;28;20206;-62
2021/01/23 06:35:27;;;;;;;7.20;4.53;;;;;;;;;;4147354;28;20048;-62
2021/01/23 06:37:38;;;;;;;6.80;3.53;;;;;;;;;;4147095;28;20049;-62
2021/01/23 06:39:58;;;;;;;10.10;4.03;;;;;;;;;;4154316;28;20410;-58
2021/01/23 06:42:00;;;;;;;14.48;5.65;;;;;;;;;;4152932;28;20045;-65
2021/01/23 06:44:08;;;;;;;10.52;5.15;;;;;;;;;;4145906;28;20061;-64
2021/01/23 06:46:14;;;;;;;13.13;6.05;;;25.70;55.40;;;;;;4153579;28;20032;-63
2021/01/23 06:48:16;;;;;;;9.13;5.45;;;;;;;;;;4152728;28;20344;-66
2021/01/23 06:50:39;;;;;;;11.02;5.13;;;26.20;63.60;;;;;;4152590;28;20049;-64
2021/01/23 06:52:47;;;;;;;10.13;5.05;;;;;;;;;;4152295;28;20206;-62
2021/01/23 06:54:49;;;;;;;7.90;4.95;;;26.40;63.90;;;;;;4156301;28;20403;-63
2021/01/23 06:56:54;;;;;;;7.47;4.57;;;26.80;64.10;;;;;;4155660;28;21315;-64
2021/01/23 06:58:56;;;;;;;7.72;3.95;;;26.90;64.00;;;;;;4157454;28;20046;-63
2021/01/23 07:00:59;;;;;;;8.40;4.30;;;27.00;63.50;;;;;;4158274;28;20029;-62
2021/01/23 07:03:27;;;;;;;7.35;4.53;;;;;;;;;;4150693;28;20061;-63
2021/01/23 07:05:29;;;;;;;8.70;4.35;;;;;;;;;;4152288;28;20044;-63
2021/01/23 07:07:36;;;;;;;6.85;3.72;;;;;;;;;;4147880;28;20037;-65
2021/01/23 07:10:00;;;;;;;7.47;4.70;;;27.10;63.30;;;;;;4153023;28;20103;-64
2021/01/23 07:12:02;;;;;;;7.57;4.13;;;;;;;;;;4148629;28;20035;-64
2021/01/23 07:14:07;;;;;;;8.43;4.05;;;;;;;;;;4147228;28;20050;-64
2021/01/23 07:16:12;;;;;;;7.28;3.92;;;;;;;;;;4151377;28;20216;-65
2021/01/23 07:18:14;;;;;;;9.15;3.97;;;;;;;;;;4149695;28;20764;-64
2021/01/23 07:20:17;;;;;;;6.78;3.47;;;;;;;;;;4147932;28;20029;-65
2021/01/23 07:22:19;;;;;;;7.10;3.88;;;;;;;;;;4147313;28;20037;-64
2021/01/23 07:24:22;;;;;;;6.78;3.70;;;;;;;;;;4152281;28;20470;-64
2021/01/23 07:26:24;;;;;;;6.57;3.65;;;;;;;;;;4146747;28;20610;-65
2021/01/23 07:28:28;;;;;;;5.55;3.05;;;;;;;;;;4151297;28;20030;-65
2021/01/23 07:30:30;;;;;;;5.47;3.35;;;;;;;;;;4147182;28;20057;-64
2021/01/23 07:32:38;;;;;;;5.50;3.47;;;;;;;;;;4146765;28;20063;-64
2021/01/23 07:34:52;;;;;;;5.93;3.78;;;;;;;;;;4147793;28;20045;-64
2021/01/23 07:36:55;;;;;;;6.60;3.35;;;;;;;;;;4146520;28;20022;-65
2021/01/23 07:38:57;;;;;;;7.22;3.35;;;;;;;;;;4147269;28;20044;-65
2021/01/23 07:40:59;;;;;;;4.53;3.20;;;;;;;;;;4147880;28;20068;-65
2021/01/23 07:43:02;;;;;;;6.32;3.10;;;;;;;;;;4149935;28;20040;-65
2021/01/23 07:45:08;;;;;;;6.22;3.55;;;;;;;;;;4148381;28;20053;-65
2021/01/23 07:47:13;;;;;;;6.80;3.10;;;;;;;;;;4149717;28;20049;-64
2021/01/23 07:49:22;;;;;;;5.30;2.70;;;;;;;;;;4146546;28;20025;-69
2021/01/23 07:51:27;;;;;;;6.05;2.70;;;;;;;;;;4147803;28;20089;-68
2021/01/23 07:53:29;;;;;;;4.10;2.70;;;;;;;;;;4145119;28;20074;-64
2021/01/23 07:55:40;;;;;;;4.78;2.42;;;;;;;;;;4146626;28;20038;-73
2021/01/23 07:57:42;;;;;;;4.45;2.40;;;;;;;;;;4147576;28;20072;-61
2021/01/23 07:59:45;;;;;;;3.95;2.45;;;;;;;;;;4145507;28;20056;-65
2021/01/23 08:01:47;;;;;;;3.28;2.30;;;;;;;;;;4149907;28;20148;-65
2021/01/23 08:03:49;;;;;;;3.90;2.38;;;;;;;;;;4150370;28;20093;-66
2021/01/23 08:05:54;;;;;;;4.37;2.37;;;;;;;;;;4152083;28;20084;-66
2021/01/23 08:07:56;;;;;;;3.53;2.30;;;;;;;;;;4145060;28;20057;-69
2021/01/23 08:10:06;;;;;;;5.07;2.50;;;;;;;;;;4140143;28;20060;-67
2021/01/23 08:12:15;;;;;;;3.75;2.40;;;;;;;;;;4149232;28;20065;-66
2021/01/23 08:14:17;;;;;;;3.55;2.33;;;;;;;;;;4150253;28;20038;-63
2021/01/23 08:16:19;;;;;;;3.53;2.35;;;;;;;;;;4147797;28;20032;-67
2021/01/23 08:18:21;;;;;;;3.50;2.30;;;;;;;;;;4150414;28;20103;-63
2021/01/23 08:20:39;;;;;;;5.17;2.37;;;;;;;;;;4148533;28;20034;-63
2021/01/23 08:22:59;;;;;;;4.15;2.30;;;;;;;;;;4146722;28;20151;-70
2021/01/23 08:25:21;;;;;;;3.88;2.60;;;;;;;;;;4150186;28;20581;-66
2021/01/23 08:27:23;;;;;;;3.78;2.25;;;;;;;;;;4143259;28;20038;-64
2021/01/23 08:29:25;;;;;;;3.70;2.60;;;;;;;;;;4148481;28;20053;-66
2021/01/23 08:31:27;;;;;;;4.25;2.75;;;;;;;;;;4149962;28;20029;-66
2021/01/23 08:33:29;;;;;;;4.70;2.35;;;;;;;;;;4150605;28;20368;-65
2021/01/23 08:35:32;;;;;;;3.10;2.10;;;;;;;;;;4149990;28;20048;-62
2021/01/23 08:37:34;;;;;;;2.72;2.03;;;;;;;;;;4146569;28;20052;-62
2021/01/23 08:39:47;;;;;;;3.58;2.20;;;;;;;;;;4146696;28;20042;-63
2021/01/23 08:41:49;;;;;;;5.03;2.33;;;;;;;;;;4145783;28;20034;-63
2021/01/23 08:43:51;;;;;;;4.15;2.60;;;;;;;;;;4150287;28;20566;-63
2021/01/23 08:45:53;;;;;;;4.03;2.60;;;;;;;;;;4147235;28;20030;-62
2021/01/23 08:47:55;;;;;;;5.95;2.70;;;;;;;;;;4144877;28;20448;-63
2021/01/23 08:49:57;;;;;;;3.90;2.45;;;;;;;;;;4143843;28;20046;-63
2021/01/23 08:51:59;;;;;;;6.57;2.67;;;;;;;;;;4141564;28;20124;-61
2021/01/23 08:54:01;;;;;;;4.40;2.47;;;27.70;63.80;;;;;;4146565;28;20037;-61
2021/01/23 08:56:03;;;;;;;8.23;3.40;;;27.10;52.60;;;;;;4149139;28;20514;-61
2021/01/23 08:58:05;;;;;;;4.57;2.42;;;;;;;;;;4149567;28;20037;-64
2021/01/23 09:00:09;;;;;;;3.80;2.38;;;27.00;52.80;;;;;;4143762;28;20117;-65
2021/01/23 09:02:14;;;;;;;5.45;2.78;;;26.80;52.80;;;;;;4143163;28;20391;-66
2021/01/23 09:04:16;;;;;;;4.88;2.50;;;26.80;52.80;;;;;;4142337;28;20026;-63
2021/01/23 09:06:18;;;;;;;4.90;2.23;;;26.70;52.70;;;;;;4142868;28;20498;-64
2021/01/23 09:08:20;;;;;;;6.47;2.90;;;;;;;;;;4139560;28;20275;-62
2021/01/23 09:10:22;;;;;;;4.85;2.50;;;;;;;;;;4143255;28;20452;-67
2021/01/23 09:12:25;;;;;;;4.18;2.50;;;26.70;52.70;;;;;;4144841;28;20103;-64
2021/01/23 09:14:27;;;;;;;4.40;2.22;;;26.50;52.50;;;;;;4143579;28;20045;-69
2021/01/23 09:16:29;;;;;;;4.93;2.80;;;26.50;52.80;;;;;;4143873;28;20482;-66
2021/01/23 09:18:32;;;;;;;3.53;2.30;;;;;;;;;;4144130;28;20025;-66
2021/01/23 09:20:34;;;;;;;3.85;2.30;;;;;;;;;;4145381;28;20395;-64
2021/01/23 09:22:36;;;;;;;4.85;2.40;;;;;;;;;;4145967;28;20053;-65
2021/01/23 09:24:38;;;;;;;3.28;2.50;;;26.50;52.60;;;;;;4143098;28;20056;-65
2021/01/23 09:26:41;;;;;;;3.50;2.45;;;;;;;;;;4142185;28;20499;-68
2021/01/23 09:28:43;;;;;;;4.22;2.60;;;;;;;;;;4141695;28;20041;-66
2021/01/23 09:30:45;;;;;;;3.40;2.30;;;;;;;;;;4147492;28;20029;-66
2021/01/23 09:32:47;;;;;;;3.95;2.72;;;;;;;;;;4138403;28;20634;-66
2021/01/23 09:34:49;;;;;;;3.08;2.38;;;;;;;;;;4138071;28;20534;-66
2021/01/23 09:36:51;;;;;;;3.00;2.15;;;;;;;;;;4141544;28;20427;-66
2021/01/23 09:38:53;;;;;;;3.25;2.25;;;;;;;;;;4141985;28;20042;-67
2021/01/23 09:40:55;;;;;;;3.35;2.30;;;;;;;;;;4142103;28;20064;-69
2021/01/23 09:42:57;;;;;;;4.03;2.30;;;;;;;;;;4142792;28;20091;-66
2021/01/23 09:45:00;;;;;;;3.65;2.40;;;;;;;;;;4142283;28;20044;-65
2021/01/23 09:47:01;;;;;;;3.45;2.20;;;;;;;;;;4144161;28;20033;-64
2021/01/23 09:49:05;;;;;;;2.50;2.00;;;;;;;;;;4143066;28;20343;-66
2021/01/23 09:51:07;;;;;;;4.05;2.40;;;;;;;;;;4146595;28;20038;-63
2021/01/23 09:53:09;;;;;;;3.20;2.20;;;;;;;;;;4144419;28;20300;-62
2021/01/23 09:55:11;;;;;;;2.70;1.90;;;;;;;;;;4164552;28;20044;-65
2021/01/23 09:57:13;;;;;;;4.67;2.10;;;;;;;;;;4145314;28;20084;-67
2021/01/23 09:59:16;;;;;;;5.20;2.45;;;;;;;;;;4147331;28;20399;-64
2021/01/23 10:01:20;;;;;;;3.28;2.53;;;;;;;;;;4143887;28;20467;-67
2021/01/23 10:03:22;;;;;;;2.83;2.15;;;;;;;;;;4149175;28;20167;-65
2021/01/23 10:05:24;;;;;;;2.85;2.20;;;;;;;;;;4143553;28;20562;-67
2021/01/23 10:07:26;;;;;;;3.17;2.35;;;;;;;;;;4144643;28;20083;-63
2021/01/23 10:09:28;;;;;;;3.13;2.38;;;;;;;;;;4144461;28;20049;-62
2021/01/23 10:11:30;;;;;;;4.05;2.60;;;;;;;;;;4149141;28;20052;-68
2021/01/23 10:13:32;;;;;;;3.20;2.33;;;;;;;;;;4147821;28;20060;-64
2021/01/23 10:15:34;;;;;;;4.55;2.30;;;;;;;;;;4147451;28;20093;-67
2021/01/23 10:17:36;;;;;;;3.55;1.80;;;;;;;;;;4143381;28;20151;-65
2021/01/23 10:19:38;;;;;;;2.83;2.00;;;;;;;;;;4147759;28;20041;-63
2021/01/23 10:21:40;;;;;;;3.25;2.20;;;;;;;;;;4143567;28;20034;-67
2021/01/23 10:23:42;;;;;;;3.97;2.33;;;;;;;;;;4141269;28;20418;-64
2021/01/23 10:25:44;;;;;;;3.72;2.38;;;;;;;;;;4145336;28;20179;-61
2021/01/23 10:27:47;;;;;;;2.97;2.20;;;;;;;;;;4147454;28;20076;-63
2021/01/23 10:29:49;;;;;;;3.17;2.40;;;;;;;;;;4141451;28;20120;-62
2021/01/23 10:31:51;;;;;;;3.20;2.22;;;;;;;;;;4144117;28;20140;-63
2021/01/23 10:33:53;;;;;;;3.25;2.08;;;;;;;;;;4144336;28;20051;-62
2021/01/23 10:35:55;;;;;;;3.30;2.08;;;;;;;;;;4141386;28;20384;-63
2021/01/23 10:37:57;;;;;;;3.70;2.65;;;;;;;;;;4143497;28;20034;-67
2021/01/23 10:39:59;;;;;;;3.35;2.33;;;;;;;;;;4151085;28;20047;-63
2021/01/23 10:42:01;;;;;;;3.95;2.40;;;;;;;;;;4150527;28;20499;-63
2021/01/23 10:44:03;;;;;;;3.10;2.30;;;;;;;;;;4152214;28;20040;-64
2021/01/23 10:46:05;;;;;;;3.38;2.50;;;;;;;;;;4153682;28;20033;-63
2021/01/23 10:48:08;;;;;;;3.20;2.30;;;;;;;;;;4156646;28;20041;-62
2021/01/23 10:50:10;;;;;;;3.47;2.47;;;;;;;;;;4155916;28;20093;-64
2021/01/23 10:52:12;;;;;;;6.07;2.40;;;;;;;;;;4154780;28;20425;-61
2021/01/23 10:54:16;;;;;;;5.50;2.53;;;;;;;;;;4158256;28;20044;-59
2021/01/23 10:56:18;;;;;;;10.30;2.85;;;;;;;;;;4156430;28;20037;-62
2021/01/23 10:58:20;;;;;;;10.63;2.83;;;;;;;;;;4159688;28;20037;-61
2021/01/23 11:00:23;;;;;;;14.65;3.22;;;;;;;;;;4160831;28;20037;-63
2021/01/23 11:02:25;;;;;;;12.88;3.00;;;;;;;;;;4162710;28;20061;-63
2021/01/23 11:04:27;;;;;;;8.43;2.80;;;;;;;;;;4157412;28;20029;-56
2021/01/23 11:06:29;;;;;;;4.13;2.10;;;;;;;;;;4160302;28;20028;-58
2021/01/23 11:08:31;;;;;;;3.22;2.10;;;;;;;;;;4153097;28;20056;-59
2021/01/23 11:10:35;;;;;;;4.28;2.28;;;;;;;;;;4158978;28;20077;-63
2021/01/23 11:12:37;;;;;;;5.53;2.00;;;;;;;;;;4152816;28;20048;-67
2021/01/23 11:14:39;;;;;;;4.95;2.22;;;;;;;;;;4154225;28;20436;-68
2021/01/23 11:16:40;;;;;;;7.75;2.25;;;;;;;;;;4153293;28;20128;-64
2021/01/23 11:18:42;;;;;;;6.05;2.60;;;;;;;;;;4156881;28;20048;-67
2021/01/23 11:20:45;;;;;;;6.47;2.30;;;;;;;;;;4157039;28;20030;-69
2021/01/23 11:22:47;;;;;;;4.60;2.15;;;;;;;;;;4154999;28;20124;-64
2021/01/23 11:24:49;;;;;;;4.20;1.93;;;;;;;;;;4157917;28;20093;-65
2021/01/23 11:26:51;;;;;;;12.52;2.97;;;;;;;;;;4149752;28;20350;-60
2021/01/23 11:28:53;;;;;;;9.25;2.42;;;;;;;;;;4165804;28;20033;-73
2021/01/23 11:30:55;;;;;;;6.28;2.17;;;;;;;;;;4155140;28;20030;-70
2021/01/23 11:32:57;;;;;;;10.05;2.30;;;;;;;;;;4157107;28;20330;-73
2021/01/23 11:34:59;;;;;;;6.68;2.20;;;;;;;;;;4150395;28;20079;-70
2021/01/23 11:37:01;;;;;;;5.03;1.90;;;;;;;;;;4158933;28;20049;-71
2021/01/23 11:39:04;;;;;;;6.40;2.00;;;26.10;52.40;;;;;;4148857;28;20499;-70
2021/01/23 11:41:06;;;;;;;5.40;2.00;;;25.50;60.80;;;;;;4149977;28;20037;-70
2021/01/23 11:43:09;;;;;;;5.10;2.00;;;25.60;60.90;;;;;;4153168;28;20069;-68
2021/01/23 11:45:12;;;;;;;5.10;2.10;;;25.60;60.80;;;;;;4148830;28;20042;-77
2021/01/23 11:47:14;;;;;;;4.38;1.95;;;25.70;60.60;;;;;;4153402;28;20079;-71
2021/01/23 11:49:16;;;;;;;4.22;2.58;;;;;;;;;;4146811;28;20070;-60
2021/01/23 11:51:18;;;;;;;8.93;2.47;;;;;;;;;;4155444;28;20114;-59
2021/01/23 11:53:20;;;;;;;8.55;2.67;;;;;;;;;;4149025;28;20395;-53
2021/01/23 11:55:22;;;;;;;8.15;2.45;;;;;;;;;;4154409;28;20053;-61